createdAt,value
2017-11-26T00:00:11.793Z,3.70
2017-11-26T00:02:40.069Z,3.70
2017-11-26T00:05:08.338Z,3.70
2017-11-26T00:07:36.633Z,3.60
2017-11-26T00:10:06.400Z,3.60
2017-11-26T00:12:34.689Z,3.60
2017-11-26T00:15:02.971Z,3.60
2017-11-26T00:17:31.240Z,3.60
2017-11-26T00:19:59.516Z,3.60
2017-11-26T00:22:27.786Z,3.60
2017-11-26T00:24:56.068Z,3.60
2017-11-26T00:27:24.322Z,3.50
2017-11-26T00:29:53.369Z,3.50
2017-11-26T00:32:21.637Z,3.40
2017-11-26T00:34:49.925Z,3.50
2017-11-26T00:37:18.299Z,3.50
2017-11-26T00:39:46.598Z,3.50
2017-11-26T00:42:14.861Z,3.40
2017-11-26T00:44:43.898Z,3.40
2017-11-26T00:47:12.211Z,3.40
2017-11-26T00:49:40.497Z,3.40
2017-11-26T00:52:08.775Z,3.40
2017-11-26T00:54:37.058Z,3.40
2017-11-26T00:57:06.081Z,3.40
2017-11-26T00:59:34.516Z,3.30
2017-11-26T01:02:02.761Z,3.40
2017-11-26T01:04:31.043Z,3.40
2017-11-26T01:06:59.305Z,3.40
2017-11-26T01:09:27.584Z,3.50
2017-11-26T01:11:55.840Z,3.50
2017-11-26T01:14:24.185Z,3.50
2017-11-26T01:16:52.458Z,3.50
2017-11-26T01:19:20.735Z,3.50
2017-11-26T01:21:49.030Z,3.40
2017-11-26T01:24:18.080Z,3.40
2017-11-26T01:26:46.350Z,3.40
2017-11-26T01:29:14.639Z,3.60
2017-11-26T01:31:42.932Z,3.70
2017-11-26T01:34:11.223Z,3.80
2017-11-26T01:36:39.477Z,3.80
2017-11-26T01:39:07.773Z,3.80
2017-11-26T01:41:36.053Z,3.80
2017-11-26T01:44:04.420Z,4.10
2017-11-26T01:46:32.676Z,4.10
2017-11-26T01:49:00.950Z,4.00
2017-11-26T01:51:29.209Z,4.20
2017-11-26T01:53:57.523Z,4.20
2017-11-26T01:56:25.805Z,4.00
2017-11-26T01:58:54.073Z,3.90
2017-11-26T02:01:22.341Z,3.80
2017-11-26T02:03:57.593Z,3.80
2017-11-26T02:06:25.858Z,3.90
2017-11-26T02:08:54.141Z,3.90
2017-11-26T02:11:22.401Z,3.90
2017-11-26T02:13:50.686Z,3.80
2017-11-26T02:18:54.310Z,3.90
2017-11-26T02:23:57.140Z,3.80
2017-11-26T02:26:25.394Z,3.80
2017-11-26T02:28:53.670Z,3.80
2017-11-26T02:31:33.694Z,3.70
2017-11-26T02:34:14.009Z,3.70
2017-11-26T02:36:42.269Z,4.00
2017-11-26T02:39:10.548Z,3.90
2017-11-26T02:41:38.864Z,3.90
2017-11-26T02:44:07.933Z,3.80
2017-11-26T02:46:37.080Z,3.80
2017-11-26T02:49:05.365Z,3.80
2017-11-26T02:51:33.675Z,3.80
2017-11-26T02:54:02.161Z,3.80
2017-11-26T02:56:30.415Z,3.80
2017-11-26T02:58:58.707Z,3.80
2017-11-26T03:01:26.973Z,4.00
2017-11-26T03:03:55.233Z,4.00
2017-11-26T03:06:23.517Z,4.10
2017-11-26T03:08:51.777Z,4.20
2017-11-26T03:11:20.069Z,4.30
2017-11-26T03:13:48.329Z,4.20
2017-11-26T03:16:16.610Z,4.10
2017-11-26T03:18:44.928Z,4.00
2017-11-26T03:21:13.193Z,4.00
2017-11-26T03:23:41.455Z,4.00
2017-11-26T03:26:09.733Z,3.90
2017-11-26T03:28:37.996Z,3.90
2017-11-26T03:31:06.282Z,3.90
2017-11-26T03:33:34.546Z,3.80
2017-11-26T03:36:02.820Z,3.80
2017-11-26T03:38:31.093Z,3.70
2017-11-26T03:40:59.394Z,3.70
2017-11-26T03:43:27.664Z,3.90
2017-11-26T03:45:55.942Z,4.20
2017-11-26T03:48:24.215Z,4.00
2017-11-26T03:50:52.525Z,4.20
2017-11-26T03:53:20.904Z,4.10
2017-11-26T03:55:49.274Z,4.00
2017-11-26T03:58:17.534Z,4.00
2017-11-26T04:00:45.814Z,3.90
2017-11-26T04:03:14.108Z,3.80
2017-11-26T04:05:42.495Z,3.80
2017-11-26T04:08:11.376Z,3.90
2017-11-26T04:10:39.657Z,3.80
2017-11-26T04:13:07.945Z,3.60
2017-11-26T04:15:36.230Z,3.70
2017-11-26T04:18:04.485Z,3.70
2017-11-26T04:20:32.773Z,3.80
2017-11-26T04:23:01.053Z,3.70
2017-11-26T04:25:29.426Z,3.70
2017-11-26T04:27:57.693Z,3.60
2017-11-26T04:30:25.980Z,3.50
2017-11-26T04:32:54.277Z,3.50
2017-11-26T04:35:22.629Z,3.40
2017-11-26T04:37:50.914Z,3.40
2017-11-26T04:40:19.182Z,3.30
2017-11-26T04:42:47.565Z,3.30
2017-11-26T04:45:15.851Z,3.30
2017-11-26T04:47:49.141Z,3.30
2017-11-26T04:50:17.402Z,3.20
2017-11-26T04:52:45.701Z,3.10
2017-11-26T04:55:13.972Z,3.10
2017-11-26T04:57:42.250Z,3.10
2017-11-26T05:00:10.525Z,3.30
2017-11-26T05:02:38.905Z,3.30
2017-11-26T05:05:07.175Z,3.40
2017-11-26T05:07:35.489Z,3.30
2017-11-26T05:10:03.865Z,3.20
2017-11-26T05:12:32.133Z,3.30
2017-11-26T05:15:01.908Z,3.50
2017-11-26T05:17:30.204Z,3.50
2017-11-26T05:19:58.502Z,3.80
2017-11-26T05:22:26.860Z,3.80
2017-11-26T05:24:55.114Z,3.90
2017-11-26T05:27:23.386Z,4.10
2017-11-26T05:29:51.696Z,4.00
2017-11-26T05:32:20.066Z,3.90
2017-11-26T05:34:48.333Z,3.90
2017-11-26T05:37:16.617Z,3.90
2017-11-26T05:39:44.881Z,4.00
2017-11-26T05:42:13.901Z,3.90
2017-11-26T05:44:42.156Z,3.60
2017-11-26T05:47:10.437Z,3.70
2017-11-26T05:49:38.685Z,3.50
2017-11-26T05:52:06.962Z,3.30
2017-11-26T05:54:35.225Z,3.20
2017-11-26T05:57:04.289Z,3.30
2017-11-26T05:59:32.556Z,3.30
2017-11-26T06:02:00.839Z,3.30
2017-11-26T06:04:29.089Z,3.40
2017-11-26T06:06:57.706Z,3.40
2017-11-26T06:09:25.955Z,3.30
2017-11-26T06:11:54.246Z,3.40
2017-11-26T06:14:22.506Z,3.30
2017-11-26T06:16:50.777Z,3.20
2017-11-26T06:19:19.033Z,3.20
2017-11-26T06:21:47.315Z,3.10
2017-11-26T06:24:15.643Z,3.10
2017-11-26T06:26:44.014Z,3.20
2017-11-26T06:29:12.295Z,3.40
2017-11-26T06:31:40.544Z,3.30
2017-11-26T06:34:08.823Z,3.40
2017-11-26T06:36:37.079Z,3.30
2017-11-26T06:39:05.389Z,3.20
2017-11-26T06:41:33.663Z,3.10
2017-11-26T06:44:01.956Z,3.10
2017-11-26T06:46:30.218Z,3.20
2017-11-26T06:48:58.502Z,3.20
2017-11-26T06:51:26.773Z,3.10
2017-11-26T06:53:55.053Z,3.20
2017-11-26T06:56:24.101Z,3.40
2017-11-26T06:58:52.437Z,3.40
2017-11-26T07:01:21.514Z,3.70
2017-11-26T07:03:49.781Z,3.70
2017-11-26T07:06:18.181Z,3.50
2017-11-26T07:08:46.508Z,3.50
2017-11-26T07:11:15.521Z,3.30
2017-11-26T07:13:43.808Z,3.20
2017-11-26T07:16:12.067Z,3.10
2017-11-26T07:18:40.340Z,3.10
2017-11-26T07:21:08.613Z,3.10
2017-11-26T07:23:36.889Z,3.20
2017-11-26T07:26:05.221Z,3.10
2017-11-26T07:28:33.592Z,3.10
2017-11-26T07:31:01.841Z,3.10
2017-11-26T07:33:30.121Z,3.00
2017-11-26T07:35:58.376Z,2.90
2017-11-26T07:38:26.658Z,2.90
2017-11-26T07:40:54.930Z,2.80
2017-11-26T07:43:23.201Z,2.80
2017-11-26T07:45:51.456Z,2.80
2017-11-26T07:48:19.804Z,2.80
2017-11-26T07:50:48.052Z,2.80
2017-11-26T07:53:16.334Z,2.80
2017-11-26T07:55:44.596Z,2.80
2017-11-26T07:58:12.877Z,2.80
2017-11-26T08:00:41.139Z,2.90
2017-11-26T08:03:09.414Z,2.90
2017-11-26T08:05:37.686Z,3.00
2017-11-26T08:08:06.741Z,3.00
2017-11-26T08:10:35.002Z,2.90
2017-11-26T08:13:03.260Z,2.90
2017-11-26T08:15:32.542Z,2.90
2017-11-26T08:18:01.608Z,2.80
2017-11-26T08:20:29.960Z,2.80
2017-11-26T08:22:58.215Z,2.80
2017-11-26T08:25:26.508Z,2.80
2017-11-26T08:27:54.758Z,2.80
2017-11-26T08:30:23.037Z,2.80
2017-11-26T08:32:51.307Z,2.80
2017-11-26T08:35:19.576Z,2.80
2017-11-26T08:37:47.829Z,2.80
2017-11-26T08:40:16.869Z,2.90
2017-11-26T08:42:45.128Z,2.90
2017-11-26T08:45:14.176Z,3.00
2017-11-26T08:47:42.418Z,3.00
2017-11-26T08:50:10.758Z,3.10
2017-11-26T08:52:39.775Z,3.50
2017-11-26T08:55:08.045Z,3.50
2017-11-26T08:57:36.323Z,3.40
2017-11-26T09:00:05.380Z,3.50
2017-11-26T09:02:33.633Z,3.50
2017-11-26T09:05:01.913Z,3.50
2017-11-26T09:07:45.053Z,3.60
2017-11-26T09:10:13.323Z,3.60
2017-11-26T09:12:41.578Z,3.70
2017-11-26T09:15:09.850Z,3.70
2017-11-26T09:17:38.125Z,3.70
2017-11-26T09:20:06.398Z,3.80
2017-11-26T09:22:34.714Z,3.80
2017-11-26T09:25:02.957Z,3.90
2017-11-26T09:27:31.229Z,4.00
2017-11-26T09:29:59.481Z,4.00
2017-11-26T09:32:28.518Z,4.10
2017-11-26T09:34:56.781Z,4.10
2017-11-26T09:37:25.054Z,4.20
2017-11-26T09:39:53.309Z,4.10
2017-11-26T09:42:22.343Z,4.20
2017-11-26T09:44:50.601Z,4.20
2017-11-26T09:47:19.230Z,4.30
2017-11-26T09:49:47.598Z,4.40
2017-11-26T09:52:15.883Z,4.50
2017-11-26T09:54:44.193Z,4.50
2017-11-26T09:57:13.224Z,4.60
2017-11-26T09:59:41.533Z,4.60
2017-11-26T10:02:09.829Z,4.60
2017-11-26T10:04:38.850Z,4.70
2017-11-26T10:07:07.879Z,4.60
2017-11-26T10:09:36.170Z,4.60
2017-11-26T10:12:04.434Z,4.60
2017-11-26T10:14:32.938Z,4.50
2017-11-26T10:17:01.321Z,4.50
2017-11-26T10:19:29.694Z,4.50
2017-11-26T10:21:57.943Z,4.50
2017-11-26T10:24:26.457Z,4.60
2017-11-26T10:26:54.741Z,4.50
2017-11-26T10:29:23.093Z,4.50
2017-11-26T10:31:51.354Z,4.60
2017-11-26T10:34:19.624Z,4.80
2017-11-26T10:36:47.946Z,4.90
2017-11-26T10:39:16.321Z,5.10
2017-11-26T10:41:44.561Z,5.10
2017-11-26T10:44:12.868Z,5.30
2017-11-26T10:46:41.122Z,5.50
2017-11-26T10:49:09.381Z,5.50
2017-11-26T10:51:37.653Z,5.50
2017-11-26T10:54:05.906Z,5.50
2017-11-26T10:56:34.248Z,5.70
2017-11-26T10:59:02.530Z,5.70
2017-11-26T11:01:30.798Z,5.60
2017-11-26T11:03:59.053Z,5.50
2017-11-26T11:06:27.374Z,5.60
2017-11-26T11:08:55.747Z,5.60
2017-11-26T11:11:24.010Z,5.60
2017-11-26T11:13:52.265Z,5.70
2017-11-26T11:16:20.530Z,5.70
2017-11-26T11:18:48.797Z,5.90
2017-11-26T11:21:17.848Z,6.10
2017-11-26T11:23:46.106Z,6.10
2017-11-26T11:26:14.476Z,6.20
2017-11-26T11:28:42.779Z,6.20
2017-11-26T11:31:11.020Z,6.00
2017-11-26T11:33:39.290Z,6.00
2017-11-26T11:36:07.541Z,6.00
2017-11-26T11:38:36.572Z,6.10
2017-11-26T11:41:04.821Z,6.10
2017-11-26T11:43:33.853Z,6.20
2017-11-26T11:46:02.141Z,6.10
2017-11-26T11:48:30.419Z,6.30
2017-11-26T11:50:58.678Z,6.30
2017-11-26T11:53:26.957Z,6.30
2017-11-26T11:55:55.257Z,6.30
2017-11-26T11:58:23.504Z,6.20
2017-11-26T12:00:51.759Z,6.20
2017-11-26T12:03:20.917Z,6.40
2017-11-26T12:05:49.290Z,6.30
2017-11-26T12:08:17.528Z,6.50
2017-11-26T12:10:45.804Z,6.40
2017-11-26T12:13:14.053Z,6.50
2017-11-26T12:15:43.082Z,6.50
2017-11-26T12:18:11.392Z,6.50
2017-11-26T12:20:39.646Z,6.40
2017-11-26T12:23:07.912Z,6.40
2017-11-26T12:25:36.185Z,6.30
2017-11-26T12:28:04.438Z,6.20
2017-11-26T12:30:33.470Z,6.20
2017-11-26T12:33:01.762Z,6.20
2017-11-26T12:35:30.032Z,6.10
2017-11-26T12:37:58.323Z,6.10
2017-11-26T12:40:26.705Z,6.00
2017-11-26T12:42:54.943Z,6.10
2017-11-26T12:45:23.362Z,6.00
2017-11-26T12:47:51.610Z,6.00
2017-11-26T12:50:19.886Z,5.90
2017-11-26T12:52:48.186Z,5.90
2017-11-26T12:55:16.438Z,5.90
2017-11-26T12:57:44.705Z,5.90
2017-11-26T13:00:13.025Z,5.80
2017-11-26T13:02:41.293Z,5.80
2017-11-26T13:05:09.542Z,5.70
2017-11-26T13:07:37.844Z,5.70
2017-11-26T13:10:06.092Z,5.80
2017-11-26T13:12:34.356Z,5.70
2017-11-26T13:15:02.602Z,5.80
2017-11-26T13:17:31.630Z,5.90
2017-11-26T13:20:00.648Z,5.80
2017-11-26T13:22:28.953Z,5.80
2017-11-26T13:24:57.198Z,5.90
2017-11-26T13:27:25.498Z,5.80
2017-11-26T13:29:53.752Z,5.80
2017-11-26T13:32:22.051Z,5.90
2017-11-26T13:34:50.314Z,5.90
2017-11-26T13:37:18.609Z,5.80
2017-11-26T13:39:46.886Z,5.80
2017-11-26T13:42:15.121Z,5.80
2017-11-26T13:44:43.384Z,5.80
2017-11-26T13:47:12.435Z,5.70
2017-11-26T13:49:40.692Z,5.70
2017-11-26T13:52:08.990Z,5.70
2017-11-26T13:54:37.256Z,5.70
2017-11-26T13:57:05.505Z,5.70
2017-11-26T13:59:33.782Z,5.70
2017-11-26T14:02:02.102Z,5.80
2017-11-26T14:04:30.365Z,5.80
2017-11-26T14:06:58.613Z,5.70
2017-11-26T14:09:26.881Z,5.80
2017-11-26T14:11:55.309Z,5.70
2017-11-26T14:14:23.591Z,5.80
2017-11-26T14:16:51.846Z,5.80
2017-11-26T14:19:20.154Z,5.80
2017-11-26T14:21:48.449Z,5.70
2017-11-26T14:24:16.728Z,5.70
2017-11-26T14:26:45.761Z,5.70
2017-11-26T14:29:14.067Z,5.70
2017-11-26T14:31:43.140Z,5.60
2017-11-26T14:34:11.385Z,5.70
2017-11-26T14:36:40.423Z,5.70
2017-11-26T14:39:08.676Z,5.60
2017-11-26T14:41:36.938Z,5.60
2017-11-26T14:44:05.230Z,5.60
2017-11-26T14:46:33.488Z,5.70
2017-11-26T14:49:01.737Z,5.60
2017-11-26T14:51:30.770Z,5.60
2017-11-26T14:53:59.050Z,5.60
2017-11-26T14:56:27.313Z,5.60
2017-11-26T14:58:56.351Z,5.50
2017-11-26T15:01:24.744Z,5.50
2017-11-26T15:03:52.997Z,5.50
2017-11-26T15:06:22.214Z,5.50
2017-11-26T15:08:50.470Z,5.50
2017-11-26T15:11:18.729Z,5.60
2017-11-26T15:13:46.988Z,5.50
2017-11-26T15:16:16.000Z,5.50
2017-11-26T15:18:44.273Z,5.50
2017-11-26T15:21:12.694Z,5.50
2017-11-26T15:23:40.969Z,5.50
2017-11-26T15:26:09.222Z,5.50
2017-11-26T15:28:37.489Z,5.40
2017-11-26T15:31:05.748Z,5.40
2017-11-26T15:33:34.772Z,5.30
2017-11-26T15:36:03.034Z,5.30
2017-11-26T15:38:31.350Z,5.30
2017-11-26T15:40:59.631Z,5.30
2017-11-26T15:43:27.904Z,5.30
2017-11-26T15:45:56.157Z,5.30
2017-11-26T15:48:24.403Z,5.30
2017-11-26T15:50:53.437Z,5.30
2017-11-26T15:53:21.680Z,5.30
2017-11-26T15:55:49.968Z,5.30
2017-11-26T15:58:18.226Z,5.30
2017-11-26T16:00:47.281Z,5.20
2017-11-26T16:03:15.546Z,5.20
2017-11-26T16:05:43.809Z,5.20
2017-11-26T16:08:12.066Z,5.20
2017-11-26T16:10:40.377Z,5.20
2017-11-26T16:13:08.660Z,5.20
2017-11-26T16:15:36.925Z,5.30
2017-11-26T16:18:05.229Z,5.20
2017-11-26T16:20:33.505Z,5.10
2017-11-26T16:23:01.765Z,4.90
2017-11-26T16:25:30.050Z,4.80
2017-11-26T16:27:58.325Z,4.70
2017-11-26T16:30:26.573Z,4.70
2017-11-26T16:32:54.983Z,4.60
2017-11-26T16:35:23.258Z,4.70
2017-11-26T16:37:51.636Z,4.70
2017-11-26T16:40:19.912Z,4.70
2017-11-26T16:42:48.194Z,4.70
2017-11-26T16:45:16.476Z,4.70
2017-11-26T16:47:44.744Z,4.70
2017-11-26T16:50:13.005Z,4.70
2017-11-26T16:52:41.289Z,4.70
2017-11-26T16:55:09.583Z,4.70
2017-11-26T16:57:37.864Z,4.70
2017-11-26T17:00:06.118Z,4.70
2017-11-26T17:02:34.381Z,4.70
2017-11-26T17:05:03.508Z,4.60
2017-11-26T17:07:31.769Z,4.60
2017-11-26T17:10:00.037Z,4.50
2017-11-26T17:12:28.297Z,4.60
2017-11-26T17:14:56.585Z,4.50
2017-11-26T17:17:24.849Z,4.50
2017-11-26T17:19:53.125Z,4.40
2017-11-26T17:22:21.377Z,4.40
2017-11-26T17:24:50.416Z,4.40
2017-11-26T17:27:18.661Z,4.30
2017-11-26T17:29:46.935Z,4.40
2017-11-26T17:32:15.993Z,4.40
2017-11-26T17:34:44.256Z,4.40
2017-11-26T17:37:12.510Z,4.50
2017-11-26T17:39:41.124Z,4.50
2017-11-26T17:42:09.409Z,4.40
2017-11-26T17:44:37.749Z,4.50
2017-11-26T17:47:06.062Z,4.50
2017-11-26T17:49:35.142Z,4.50
2017-11-26T17:52:03.510Z,4.50
2017-11-26T17:54:31.781Z,4.50
2017-11-26T17:57:00.175Z,4.50
2017-11-26T17:59:28.429Z,4.50
2017-11-26T18:01:56.701Z,4.60
2017-11-26T18:04:24.957Z,4.60
2017-11-26T18:06:53.234Z,4.60
2017-11-26T18:09:21.486Z,4.60
2017-11-26T18:11:50.530Z,4.60
2017-11-26T18:14:18.784Z,4.60
2017-11-26T18:16:47.826Z,4.60
2017-11-26T18:19:16.073Z,4.60
2017-11-26T18:21:44.374Z,4.60
2017-11-26T18:24:13.603Z,4.60
2017-11-26T18:26:42.757Z,4.60
2017-11-26T18:29:11.019Z,4.60
2017-11-26T18:31:39.272Z,4.70
2017-11-26T18:34:07.760Z,4.80
2017-11-26T18:36:36.799Z,4.70
2017-11-26T18:39:05.119Z,4.70
2017-11-26T18:41:33.369Z,4.70
2017-11-26T18:44:03.173Z,4.70
2017-11-26T18:46:31.430Z,4.70
2017-11-26T18:48:59.826Z,4.70
2017-11-26T18:51:28.069Z,4.80
2017-11-26T18:53:56.346Z,4.70
2017-11-26T18:56:24.597Z,4.70
2017-11-26T18:58:54.504Z,4.70
2017-11-26T19:01:23.517Z,4.70
2017-11-26T19:03:51.838Z,4.70
2017-11-26T19:06:20.223Z,4.70
2017-11-26T19:08:48.466Z,4.70
2017-11-26T19:11:16.745Z,4.70
2017-11-26T19:13:45.053Z,4.70
2017-11-26T19:16:13.329Z,4.70
2017-11-26T19:18:41.573Z,4.70
2017-11-26T19:21:09.846Z,4.80
2017-11-26T19:23:38.165Z,4.80
2017-11-26T19:26:06.425Z,4.80
2017-11-26T19:28:34.681Z,4.70
2017-11-26T19:31:03.900Z,4.80
2017-11-26T19:33:32.156Z,4.80
2017-11-26T19:36:00.422Z,4.90
2017-11-26T19:38:28.677Z,4.80
2017-11-26T19:40:57.738Z,4.90
2017-11-26T19:43:25.980Z,4.90
2017-11-26T19:45:54.289Z,4.90
2017-11-26T19:48:22.538Z,4.90
2017-11-26T19:50:50.801Z,4.90
2017-11-26T19:53:19.113Z,4.80
2017-11-26T19:55:47.407Z,4.80
2017-11-26T19:58:15.654Z,4.70
2017-11-26T20:00:43.909Z,4.80
2017-11-26T20:03:12.173Z,4.80
2017-11-26T20:05:41.228Z,4.80
2017-11-26T20:08:09.493Z,4.80
2017-11-26T20:10:37.736Z,4.80
2017-11-26T20:13:06.001Z,4.80
2017-11-26T20:15:35.018Z,4.90
2017-11-26T20:18:03.294Z,4.90
2017-11-26T20:20:31.637Z,4.90
2017-11-26T20:23:00.688Z,4.90
2017-11-26T20:25:28.953Z,4.90
2017-11-26T20:27:57.227Z,4.90
2017-11-26T20:30:25.470Z,4.90
2017-11-26T20:32:54.500Z,4.90
2017-11-26T20:35:22.745Z,4.90
2017-11-26T20:37:51.805Z,4.90
2017-11-26T20:40:20.078Z,4.80
2017-11-26T20:42:48.323Z,4.90
2017-11-26T20:45:16.595Z,4.90
2017-11-26T20:47:44.851Z,4.90
2017-11-26T20:50:14.306Z,4.90
2017-11-26T20:52:42.660Z,4.90
2017-11-26T20:55:10.957Z,4.90
2017-11-26T20:57:39.229Z,4.90
2017-11-26T21:00:07.477Z,4.80
2017-11-26T21:02:35.746Z,4.90
2017-11-26T21:05:04.766Z,4.80
2017-11-26T21:07:33.167Z,4.80
2017-11-26T21:10:01.416Z,4.80
2017-11-26T21:12:29.716Z,4.80
2017-11-26T21:14:58.065Z,4.70
2017-11-26T21:17:26.334Z,4.70
2017-11-26T21:19:54.606Z,4.80
2017-11-26T21:22:22.858Z,4.70
2017-11-26T21:24:51.122Z,4.70
2017-11-26T21:27:20.923Z,4.70
2017-11-26T21:29:49.181Z,4.70
2017-11-26T21:32:17.436Z,4.70
2017-11-26T21:34:45.727Z,4.70
2017-11-26T21:37:14.029Z,4.70
2017-11-26T21:39:42.269Z,4.70
2017-11-26T21:42:10.546Z,4.70
2017-11-26T21:44:38.812Z,4.70
2017-11-26T21:47:07.097Z,4.70
2017-11-26T21:49:35.328Z,4.80
2017-11-26T21:52:03.625Z,4.80
2017-11-26T21:54:32.672Z,4.80
2017-11-26T21:57:00.921Z,4.80
2017-11-26T21:59:29.204Z,4.80
2017-11-26T22:01:57.518Z,4.90
2017-11-26T22:04:25.796Z,4.90
2017-11-26T22:06:54.047Z,4.90
2017-11-26T22:09:22.324Z,4.90
2017-11-26T22:11:50.578Z,4.90
2017-11-26T22:14:18.837Z,4.90
2017-11-26T22:16:47.874Z,4.80
2017-11-26T22:19:16.153Z,4.80
2017-11-26T22:21:44.442Z,4.80
2017-11-26T22:24:12.693Z,4.90
2017-11-26T22:26:40.947Z,4.90
2017-11-26T22:29:10.091Z,4.90
2017-11-26T22:31:38.343Z,4.90
2017-11-26T22:34:06.613Z,4.90
2017-11-26T22:36:34.869Z,4.90
2017-11-26T22:39:03.933Z,5.00
2017-11-26T22:41:32.203Z,4.90
2017-11-26T22:44:00.435Z,5.00
2017-11-26T22:46:28.721Z,5.00
2017-11-26T22:48:56.973Z,5.00
2017-11-26T22:51:26.010Z,5.00
2017-11-26T22:53:54.273Z,5.00
2017-11-26T22:56:22.559Z,5.10
2017-11-26T22:58:50.818Z,5.10
2017-11-26T23:01:19.065Z,5.20
2017-11-26T23:03:48.117Z,5.50
2017-11-26T23:06:16.368Z,5.40
2017-11-26T23:08:44.649Z,5.50
2017-11-26T23:11:12.906Z,5.50
2017-11-26T23:13:41.947Z,5.50
2017-11-26T23:16:10.205Z,5.50
2017-11-26T23:18:38.467Z,5.50
2017-11-26T23:21:06.750Z,5.50
2017-11-26T23:23:35.004Z,5.50
2017-11-26T23:26:04.084Z,5.50
2017-11-26T23:28:33.107Z,5.40
2017-11-26T23:31:01.390Z,5.40
2017-11-26T23:33:29.689Z,5.50
2017-11-26T23:35:58.083Z,5.50
2017-11-26T23:38:26.345Z,5.50
2017-11-26T23:40:54.597Z,5.40
2017-11-26T23:43:22.906Z,5.40
2017-11-26T23:45:51.154Z,5.40
2017-11-26T23:48:19.433Z,5.60
2017-11-26T23:50:47.701Z,5.60
2017-11-26T23:53:15.961Z,5.80
2017-11-26T23:55:45.018Z,5.90
2017-11-26T23:58:13.286Z,5.90
